Estación meteorológica de Montseny - Vallcàrquera (Vallès Oriental, Parc Natural del Montseny)

Consulta los datos en tiempo real de la estación meteorológica de Montseny - Vallcàrquera





Hora UTC 03:50
Temperatura 12.6 ºC
Humedad 93.9 %
Pluja 0.1 mm
Velocidad viento 0.5 km/h
Dirección viento N
Radiación solar 0.0 W/m²

Datos diarios 2026-05-04



Hora UTC (invierno +1h; verano +2h)
Temperatura (ºC) Humedad (%) Velocidad viento (km/h) Precipitación (mm) Radiación solar (W/m²)
Hora UTC Aire Humedad Vel. Dir. Vel. Max Dir. Intent. máx 5 min. Rad. Sol.
00:05 12.3 94.9 0.6 ENE 0.6 ENE 0.0 0.0
00:10 12.2 94.9 0.0 NNE 0.0 ENE 0.1 0.0
00:15 12.2 95.0 0.0 WNW 1.1 WNW 0.0 0.0
00:20 12.2 95.1 1.0 E 2.8 SE 0.0 0.0
00:25 12.2 95.2 1.7 ENE 3.5 E 0.0 0.0
00:30 12.2 95.3 1.7 NE 3.2 ENE 0.0 0.0
00:35 12.2 95.3 0.1 NE 1.4 ENE 0.0 0.0
00:40 12.3 95.2 0.0 NNE 0.0 NNE 0.0 0.0
00:45 12.3 95.1 0.0 NNE 0.0 N 0.0 0.0
00:50 12.3 95.2 0.0 NNE 0.0 WNW 0.0 0.0
00:55 12.3 95.1 0.0 NNE 0.0 WNW 0.0 0.0
01:00 12.3 95.2 0.0 NNE 0.0 WNW 0.0 0.0
01:05 12.3 95.2 0.0 NE 0.7 NE 0.0 0.0
01:10 12.3 95.3 2.3 ENE 3.2 ENE 0.0 0.0
01:15 12.2 95.3 1.5 NNE 3.2 NE 0.0 0.0
01:20 12.3 95.2 0.0 NNE 0.0 NNW 0.0 0.0
01:25 12.3 95.3 0.7 NE 2.1 NE 0.0 0.0
01:30 12.3 95.3 0.8 S 2.8 E 0.0 0.0
01:35 12.3 95.4 2.7 NNE 4.2 N 0.0 0.0
01:40 12.3 95.4 1.8 NE 3.9 NE 0.0 0.0
01:45 12.4 95.0 0.5 NE 2.5 ENE 0.0 0.1
01:50 12.5 94.9 0.4 WNW 2.1 ENE 0.0 0.0
01:55 12.5 94.8 0.2 W 2.1 W 0.0 0.0
02:00 12.5 94.8 0.0 NNE 0.0 NNW 0.0 0.0
02:05 12.5 94.9 0.4 SSW 2.1 SW 0.0 0.0
02:10 12.4 95.0 0.0 NNE 0.0 S 0.0 0.0
02:15 12.4 95.1 2.1 ENE 3.5 ENE 0.0 0.0
02:20 12.4 95.1 0.5 N 2.1 ENE 0.0 0.0
02:25 12.5 95.1 0.2 NNW 1.4 NNW 0.0 0.0
02:30 12.5 95.1 0.6 SSW 2.5 S 0.0 0.0
02:35 12.4 95.1 0.0 NNE 0.0 SE 0.0 0.0
02:40 12.4 95.1 0.3 ENE 2.1 ENE 0.0 0.0
02:45 12.5 95.2 1.9 ENE 3.2 ENE 0.0 0.0
02:50 12.5 95.1 0.2 N 1.4 N 0.0 0.0
02:55 12.5 95.1 0.0 NNE 0.0 NNE 0.0 0.0
03:00 12.5 95.2 0.0 NNE 0.0 NE 0.0 0.0
03:05 12.5 95.1 0.2 ENE 1.4 ENE 0.0 0.0
03:10 12.5 95.1 0.7 ENE 1.8 ENE 0.0 0.0
03:15 12.5 95.0 0.5 E 1.8 ESE 0.0 0.0
03:20 12.5 95.1 1.3 ENE 2.1 ENE 0.0 0.0
03:25 12.5 95.1 0.1 ENE 1.8 E 0.0 0.0
03:30 12.5 94.9 1.5 ENE 2.8 E 0.0 0.0
03:35 12.6 94.7 0.6 NE 2.1 NE 0.0 0.0
03:40 12.6 94.6 0.5 NE 1.8 N 0.0 0.0
03:45 12.6 94.3 2.4 NE 4.6 ENE 0.0 0.0
03:50 12.6 93.9 0.5 N 2.1 NNE 0.0 0.0
Máxima 12.6 95.4 2.7 NNE 4.6 ENE 0.1 0.1
Mínima 12.2 93.9
Total 0.1